Time;durP1;ratioP1;P1;durP2;ratioP2;P2;SDS_P1;SDS_P2;PMS_P1;PMS_P2;Temp;Humidity;BMP_temperature;BMP_pressure;BME280_temperature;BME280_humidity;BME280_pressure;Samples;Min_cycle;Max_cycle;Signal;HPM_P1;HPM_P2
2021/04/01 00:00:06;;;;;;;63.08;42.00;;;12.00;82.10;;;;;;5059403;28;20047;-74
2021/04/01 00:02:32;;;;;;;63.58;44.22;;;11.90;82.70;;;;;;5061431;28;20037;-74
2021/04/01 00:04:58;;;;;;;58.53;41.10;;;11.80;82.90;;;;;;5060869;28;20040;-73
2021/04/01 00:07:24;;;;;;;68.03;48.28;;;11.80;82.70;;;;;;5063474;28;20114;-74
2021/04/01 00:09:50;;;;;;;71.97;49.75;;;11.80;83.10;;;;;;5056260;28;20123;-74
2021/04/01 00:12:16;;;;;;;65.47;46.17;;;11.70;83.50;;;;;;5060637;28;20044;-74
2021/04/01 00:14:44;;;;;;;70.65;48.63;;;11.70;83.20;;;;;;5056461;28;20735;-74
2021/04/01 00:17:11;;;;;;;68.63;48.65;;;11.70;83.30;;;;;;5073288;28;20041;-74
2021/04/01 00:19:37;;;;;;;70.30;47.28;;;11.70;83.30;;;;;;5061377;28;20056;-74
2021/04/01 00:22:04;;;;;;;60.60;42.88;;;11.70;83.40;;;;;;5054065;28;20190;-75
2021/04/01 00:24:31;;;;;;;84.00;56.22;;;11.70;83.40;;;;;;5059421;28;20757;-74
2021/04/01 00:26:57;;;;;;;77.57;53.40;;;11.70;83.40;;;;;;5058397;28;20045;-74
2021/04/01 00:29:23;;;;;;;82.00;53.47;;;11.60;83.60;;;;;;5057156;28;20552;-74
2021/04/01 00:31:50;;;;;;;75.18;51.35;;;11.60;83.80;;;;;;5043730;28;20041;-74
2021/04/01 00:34:16;;;;;;;63.92;44.60;;;11.50;84.00;;;;;;5058517;28;20051;-74
2021/04/01 00:36:42;;;;;;;76.60;50.22;;;11.50;83.80;;;;;;5040397;28;20037;-74
2021/04/01 00:39:09;;;;;;;65.50;45.13;;;11.50;83.80;;;;;;5059337;28;20367;-74
2021/04/01 00:41:35;;;;;;;68.05;47.90;;;11.60;84.10;;;;;;5064538;28;20046;-74
2021/04/01 00:44:04;;;;;;;68.30;47.05;;;11.60;84.10;;;;;;5059016;28;20048;-75
2021/04/01 00:46:31;;;;;;;76.28;53.05;;;11.60;84.30;;;;;;5066036;28;20036;-74
2021/04/01 00:48:57;;;;;;;73.47;50.65;;;11.60;84.10;;;;;;5061514;28;20479;-74
2021/04/01 00:51:23;;;;;;;87.45;54.33;;;11.60;84.10;;;;;;5079648;28;20052;-74
2021/04/01 00:53:49;;;;;;;92.95;58.63;;;11.60;84.00;;;;;;5077383;28;20040;-74
2021/04/01 00:56:16;;;;;;;93.30;56.45;;;11.70;83.90;;;;;;5063524;28;20040;-74
2021/04/01 00:58:43;;;;;;;95.82;59.28;;;11.80;83.50;;;;;;5054519;28;20403;-74
2021/04/01 01:03:38;;;;;;;98.30;61.10;;;11.90;82.80;;;;;;5059621;28;20063;-74
2021/04/01 01:06:04;;;;;;;101.50;62.72;;;12.00;82.70;;;;;;5062289;28;20040;-74
2021/04/01 01:08:30;;;;;;;102.28;62.13;;;12.00;82.40;;;;;;5062570;28;20075;-74
2021/04/01 01:10:56;;;;;;;98.43;62.50;;;12.10;82.10;;;;;;5057653;28;20068;-74
2021/04/01 01:13:22;;;;;;;100.60;62.20;;;12.20;81.70;;;;;;5062906;28;20037;-74
2021/04/01 01:15:51;;;;;;;96.30;60.67;;;12.20;81.40;;;;;;5058511;28;20505;-74
2021/04/01 01:18:16;;;;;;;102.15;60.00;;;12.20;81.30;;;;;;5061832;28;20490;-74
2021/04/01 01:20:43;;;;;;;96.32;58.38;;;12.30;81.00;;;;;;5059239;28;20036;-74
2021/04/01 01:23:12;;;;;;;96.72;59.05;;;12.30;80.70;;;;;;5089896;28;20581;-74
2021/04/01 01:25:38;;;;;;;96.55;60.28;;;12.30;80.50;;;;;;5060241;28;20430;-74
2021/04/01 01:28:06;;;;;;;96.40;58.35;;;12.30;80.60;;;;;;5076235;28;20132;-74
2021/04/01 01:30:33;;;;;;;96.28;58.80;;;12.30;80.70;;;;;;5061597;28;20033;-74
2021/04/01 01:33:05;;;;;;;99.43;62.17;;;12.30;80.50;;;;;;5041994;28;20052;-75
2021/04/01 01:35:34;;;;;;;100.93;59.88;;;12.20;80.30;;;;;;5044322;28;20040;-74
2021/04/01 01:38:04;;;;;;;99.65;60.25;;;12.30;80.40;;;;;;5064047;28;20059;-74
2021/04/01 01:40:31;;;;;;;98.53;58.60;;;12.20;80.10;;;;;;5065555;28;20124;-75
2021/04/01 01:42:59;;;;;;;99.20;59.90;;;12.30;80.00;;;;;;5056056;28;20119;-74
2021/04/01 01:45:30;;;;;;;99.75;59.78;;;12.30;80.10;;;;;;5097617;28;20249;-74
2021/04/01 01:47:57;;;;;;;103.32;61.22;;;12.30;79.90;;;;;;5048069;28;20151;-74
2021/04/01 01:50:25;;;;;;;87.25;54.58;;;12.30;79.90;;;;;;5062511;28;20041;-74
2021/04/01 01:52:51;;;;;;;97.70;57.85;;;12.30;80.00;;;;;;5077888;28;20040;-74
2021/04/01 01:55:18;;;;;;;95.20;59.55;;;12.20;80.00;;;;;;5058723;28;20041;-73
2021/04/01 01:57:44;;;;;;;101.43;60.35;;;12.20;80.00;;;;;;5046718;28;20044;-74
2021/04/01 02:00:18;;;;;;;104.57;59.90;;;12.30;79.60;;;;;;5059847;28;20040;-74
2021/04/01 02:02:52;;;;;;;91.10;55.50;;;12.30;79.50;;;;;;5074758;28;20029;-73
2021/04/01 02:05:19;;;;;;;89.75;53.42;;;12.20;79.10;;;;;;5057493;28;20068;-74
2021/04/01 02:07:45;;;;;;;109.43;61.67;;;12.20;79.50;;;;;;5061277;28;20502;-74
2021/04/01 02:10:14;;;;;;;94.68;57.15;;;12.20;79.80;;;;;;5057371;28;20044;-74
2021/04/01 02:12:41;;;;;;;89.57;53.30;;;12.10;80.30;;;;;;5077436;28;20116;-74
2021/04/01 02:15:11;;;;;;;94.05;56.17;;;12.00;81.20;;;;;;5074937;28;20146;-74
2021/04/01 02:17:38;;;;;;;90.65;54.53;;;11.90;81.50;;;;;;5059677;28;20053;-74
2021/04/01 02:20:04;;;;;;;94.45;56.40;;;11.90;81.70;;;;;;5062155;28;20067;-74
2021/04/01 02:22:30;;;;;;;97.65;58.53;;;11.90;82.00;;;;;;5048547;28;20056;-74
2021/04/01 02:24:56;;;;;;;103.13;61.00;;;11.90;81.60;;;;;;5061549;28;20036;-74
2021/04/01 02:27:23;;;;;;;103.57;62.20;;;11.90;81.60;;;;;;5062912;28;20296;-74
2021/04/01 02:29:51;;;;;;;101.43;62.63;;;11.90;81.50;;;;;;5063142;28;20123;-74
2021/04/01 02:32:17;;;;;;;101.32;60.50;;;11.90;81.30;;;;;;5045795;28;20041;-74
2021/04/01 02:34:43;;;;;;;104.93;60.80;;;12.00;81.10;;;;;;5025572;28;20355;-74
2021/04/01 02:37:09;;;;;;;99.40;58.53;;;12.00;80.90;;;;;;5063925;28;20063;-74
2021/04/01 02:39:35;;;;;;;98.93;59.90;;;12.00;81.50;;;;;;5059357;28;20134;-74
2021/04/01 02:42:01;;;;;;;108.88;62.15;;;11.90;82.20;;;;;;5044725;28;20065;-74
2021/04/01 02:44:27;;;;;;;109.78;62.85;;;11.80;82.80;;;;;;5060797;28;20043;-74
2021/04/01 02:46:53;;;;;;;114.80;65.22;;;11.70;84.20;;;;;;5043955;28;20044;-74
2021/04/01 02:49:19;;;;;;;118.40;66.05;;;11.60;85.50;;;;;;5062113;28;20040;-74
2021/04/01 02:51:45;;;;;;;117.68;67.15;;;11.40;85.20;;;;;;5058232;28;20044;-74
2021/04/01 02:54:11;;;;;;;113.93;63.53;;;11.40;84.40;;;;;;5065248;28;20094;-74
2021/04/01 02:56:37;;;;;;;115.03;67.05;;;11.50;83.80;;;;;;5059452;28;20042;-74
2021/04/01 02:59:03;;;;;;;118.20;68.25;;;11.50;83.40;;;;;;5063151;28;20049;-74
2021/04/01 03:01:29;;;;;;;125.07;71.68;;;11.50;82.80;;;;;;5060995;28;20040;-74
2021/04/01 03:03:56;;;;;;;125.88;71.70;;;11.60;82.40;;;;;;5061143;28;20043;-74
2021/04/01 03:06:22;;;;;;;115.63;68.90;;;11.70;82.20;;;;;;5062382;28;20076;-74
2021/04/01 03:08:48;;;;;;;125.45;70.78;;;11.60;82.00;;;;;;5043573;28;20068;-74
2021/04/01 03:11:14;;;;;;;124.68;71.47;;;11.70;82.00;;;;;;5072658;28;20129;-74
2021/04/01 03:13:43;;;;;;;125.05;73.60;;;11.80;82.40;;;;;;5077260;28;20036;-74
2021/04/01 03:16:09;;;;;;;132.48;74.93;;;11.70;82.80;;;;;;5067751;28;20250;-74
2021/04/01 03:18:35;;;;;;;128.07;75.50;;;11.70;82.50;;;;;;5045111;28;20558;-75
2021/04/01 03:21:04;;;;;;;123.30;71.93;;;11.70;82.40;;;;;;5063495;28;20055;-74
2021/04/01 03:23:30;;;;;;;127.55;74.13;;;11.70;83.20;;;;;;5058651;28;20045;-74
2021/04/01 03:25:56;;;;;;;127.15;73.95;;;11.70;83.20;;;;;;5055381;28;20620;-74
2021/04/01 03:28:23;;;;;;;133.30;73.93;;;11.70;82.30;;;;;;5060685;28;20245;-74
2021/04/01 03:30:57;;;;;;;130.23;73.80;;;11.60;82.00;;;;;;5058246;28;20327;-75
2021/04/01 03:33:23;;;;;;;123.65;70.97;;;11.60;82.10;;;;;;5063838;28;20064;-74
2021/04/01 03:35:49;;;;;;;125.80;75.63;;;11.60;81.90;;;;;;5064297;28;20067;-74
2021/04/01 03:38:16;;;;;;;131.23;76.45;;;11.50;81.60;;;;;;5064184;28;20032;-74
2021/04/01 03:40:42;;;;;;;134.45;73.50;;;11.60;81.60;;;;;;5064093;28;20047;-74
2021/04/01 03:43:08;;;;;;;131.60;78.03;;;11.50;81.80;;;;;;5038720;28;20040;-74
2021/04/01 03:45:34;;;;;;;134.32;76.18;;;11.40;82.00;;;;;;5061335;28;20099;-74
2021/04/01 03:48:00;;;;;;;132.90;75.20;;;11.40;82.00;;;;;;5048640;28;20040;-75
2021/04/01 03:50:25;;;;;;;137.90;80.97;;;11.40;82.20;;;;;;5066485;28;20037;-74
2021/04/01 03:52:51;;;;;;;135.18;78.22;;;11.30;82.20;;;;;;5043649;28;20136;-74
2021/04/01 03:55:35;;;;;;;138.77;79.07;;;11.20;82.40;;;;;;5060983;28;20509;-74
2021/04/01 03:58:12;;;;;;;149.43;84.13;;;11.20;82.70;;;;;;5050644;28;20439;-74
2021/04/01 04:00:40;;;;;;;143.50;78.78;;;11.10;82.70;;;;;;5062996;28;20370;-75
2021/04/01 04:10:44;;;;;;;145.38;84.63;;;10.90;83.00;;;;;;5062201;28;20043;-74
2021/04/01 04:13:15;;;;;;;150.38;83.82;;;10.90;83.30;;;;;;5058677;28;20037;-74
2021/04/01 04:15:41;;;;;;;144.65;82.63;;;10.70;83.50;;;;;;5057260;28;20041;-74
2021/04/01 04:18:08;;;;;;;146.05;84.20;;;10.70;83.90;;;;;;5087306;28;20048;-74
2021/04/01 04:20:34;;;;;;;145.45;81.32;;;10.70;84.00;;;;;;5062921;28;20437;-74
2021/04/01 04:22:59;;;;;;;145.25;84.05;;;10.60;84.30;;;;;;5062690;28;20115;-74
2021/04/01 04:25:26;;;;;;;150.77;82.43;;;10.60;84.50;;;;;;5048169;28;20052;-74
2021/04/01 04:30:25;;;;;;;140.10;82.25;;;10.50;84.80;;;;;;5051127;28;20506;-74
2021/04/01 04:32:52;;;;;;;150.30;85.10;;;10.40;84.80;;;;;;5080193;28;20041;-75
2021/04/01 04:35:19;;;;;;;149.18;84.38;;;10.40;85.00;;;;;;5058525;28;20037;-75
2021/04/01 04:37:45;;;;;;;149.82;84.05;;;10.30;85.10;;;;;;5052739;28;20902;-75
2021/04/01 04:40:11;;;;;;;147.30;85.05;;;10.20;85.20;;;;;;5077908;28;20076;-75
2021/04/01 04:42:37;;;;;;;151.70;85.07;;;10.20;85.30;;;;;;5063682;28;20040;-74
2021/04/01 04:45:05;;;;;;;151.45;85.68;;;10.10;85.60;;;;;;5074984;28;20028;-75
2021/04/01 04:47:31;;;;;;;152.88;85.97;;;10.10;86.10;;;;;;5063408;28;20220;-75
2021/04/01 04:49:57;;;;;;;151.05;86.45;;;10.00;86.00;;;;;;5058606;28;20060;-75
2021/04/01 04:52:23;;;;;;;149.23;86.28;;;10.00;86.40;;;;;;5072801;28;20068;-75
2021/04/01 04:54:49;;;;;;;151.40;88.63;;;10.00;86.30;;;;;;5061018;28;20040;-74
2021/04/01 04:57:35;;;;;;;154.20;87.53;;;10.00;86.10;;;;;;5062152;28;20682;-74
2021/04/01 05:05:16;;;;;;;144.40;84.45;;;9.90;85.70;;;;;;5061816;28;20457;-74
2021/04/01 05:07:41;;;;;;;139.75;83.95;;;9.80;85.80;;;;;;5065895;28;20049;-75
2021/04/01 05:10:08;;;;;;;133.43;76.95;;;9.80;86.00;;;;;;5080421;28;20063;-74
2021/04/01 05:12:34;;;;;;;129.43;74.38;;;9.60;85.90;;;;;;5062986;28;20770;-75
2021/04/01 05:14:59;;;;;;;143.77;81.00;;;9.50;86.20;;;;;;5082574;28;20040;-74
2021/04/01 05:17:25;;;;;;;135.88;79.53;;;9.50;86.50;;;;;;5065371;28;20041;-74
2021/04/01 05:19:57;;;;;;;130.82;76.88;;;9.50;86.60;;;;;;5069176;28;20123;-74
2021/04/01 05:25:11;;;;;;;137.13;78.70;;;9.30;86.70;;;;;;5063352;28;20156;-74
2021/04/01 05:27:42;;;;;;;134.40;78.88;;;9.30;87.10;;;;;;5065820;28;20040;-74
2021/04/01 05:30:08;;;;;;;130.65;78.03;;;9.30;87.10;;;;;;5058488;28;20648;-74
2021/04/01 05:32:37;;;;;;;146.13;79.70;;;9.40;86.90;;;;;;5046973;28;20083;-73
2021/04/01 05:35:05;;;;;;;141.65;84.50;;;9.30;87.00;;;;;;5095899;28;20044;-72
2021/04/01 05:37:31;;;;;;;134.13;79.05;;;9.10;87.60;;;;;;5095962;28;20041;-73
2021/04/01 05:39:58;;;;;;;142.60;84.05;;;9.10;87.80;;;;;;5063845;28;20067;-73
2021/04/01 05:42:28;;;;;;;132.77;78.78;;;9.00;88.30;;;;;;5059947;28;20060;-73
2021/04/01 05:44:58;;;;;;;133.63;78.20;;;9.00;88.40;;;;;;5080972;28;20043;-72
2021/04/01 06:05:32;;;;;;;111.85;62.78;;;8.90;90.00;;;;;;5057886;28;20048;-73
2021/04/01 06:08:10;;;;;;;95.53;57.78;;;8.70;90.00;;;;;;5059371;28;20062;-73
2021/04/01 06:10:37;;;;;;;71.03;37.80;;;8.70;90.10;;;;;;5059262;28;20144;-73
2021/04/01 06:13:16;;;;;;;57.28;30.42;;;8.60;89.60;;;;;;5061053;28;20127;-73
2021/04/01 06:15:46;;;;;;;48.57;25.83;;;8.60;89.00;;;;;;5057528;28;20044;-73
2021/04/01 06:18:14;;;;;;;44.08;23.42;;;8.70;88.20;;;;;;5061248;28;20055;-74
2021/04/01 06:20:42;;;;;;;37.25;18.35;;;8.60;88.20;;;;;;5057100;28;20048;-73
2021/04/01 06:23:27;;;;;;;37.77;17.53;;;8.60;88.00;;;;;;5071431;28;20090;-73
2021/04/01 06:25:57;;;;;;;38.13;17.05;;;8.60;87.60;;;;;;5076089;28;20480;-73
2021/04/01 06:28:47;;;;;;;30.55;13.73;;;8.60;87.60;;;;;;5054198;28;20507;-73
2021/04/01 06:31:21;;;;;;;31.38;12.48;;;8.50;87.40;;;;;;5060135;28;20053;-72
2021/04/01 06:33:57;;;;;;;29.67;11.03;;;8.60;87.10;;;;;;5073233;28;20071;-73
2021/04/01 06:36:27;;;;;;;23.48;6.80;;;8.60;86.70;;;;;;5080168;28;20052;-72
2021/04/01 06:38:53;;;;;;;18.45;4.63;;;8.60;86.10;;;;;;5062899;28;20052;-73
2021/04/01 06:41:28;;;;;;;19.08;4.32;;;8.60;85.00;;;;;;5066173;28;20044;-72
2021/04/01 06:44:11;;;;;;;23.80;4.33;;;8.60;84.30;;;;;;5050139;28;20045;-72
2021/04/01 06:46:48;;;;;;;14.10;2.97;;;8.70;83.50;;;;;;5066037;28;20043;-72
2021/04/01 06:49:52;;;;;;;18.50;3.63;;;8.70;82.50;;;;;;5047018;28;20380;-73
2021/04/01 06:52:22;;;;;;;16.40;3.40;;;8.70;82.00;;;;;;5063366;28;20040;-72
2021/04/01 06:55:14;;;;;;;14.80;3.00;;;8.80;82.60;;;;;;5064199;28;20479;-72
2021/04/01 07:01:00;;;;;;;13.23;2.47;;;8.90;82.40;;;;;;5063747;28;20044;-72
2021/04/01 07:03:43;;;;;;;14.35;2.60;;;8.90;81.70;;;;;;5059282;28;20044;-73
2021/04/01 07:06:19;;;;;;;17.83;3.17;;;9.10;81.20;;;;;;5059906;28;20338;-73
2021/04/01 07:08:58;;;;;;;16.05;3.13;;;9.10;80.20;;;;;;5059863;28;20402;-72
2021/04/01 07:14:00;;;;;;;12.45;2.70;;;9.30;79.40;;;;;;5062030;28;20040;-74
2021/04/01 07:16:44;;;;;;;15.38;3.30;;;9.40;78.90;;;;;;5058617;28;20048;-73
2021/04/01 07:35:42;;;;;;;12.75;2.83;;;10.00;77.00;;;;;;5057130;28;20380;-73
2021/04/01 07:46:33;;;;;;;12.93;2.70;;;10.20;76.10;;;;;;5062578;28;20037;-73
2021/04/01 07:49:04;;;;;;;13.75;2.35;;;10.20;76.70;;;;;;5063263;28;20044;-73
2021/04/01 07:54:24;;;;;;;15.02;2.75;;;10.30;77.10;;;;;;5079843;28;20040;-73
2021/04/01 07:59:55;;;;;;;18.77;3.22;;;10.50;77.10;;;;;;5048863;28;20109;-73
2021/04/01 08:04:52;;;;;;;13.43;2.90;;;10.60;77.10;;;;;;5061599;28;20098;-73
2021/04/01 08:07:21;;;;;;;18.92;2.97;;;10.80;76.60;;;;;;5062068;28;20449;-73
2021/04/01 08:09:52;;;;;;;17.85;2.90;;;10.80;76.60;;;;;;5061762;28;20056;-73
2021/04/01 08:12:31;;;;;;;24.33;4.00;;;10.90;76.60;;;;;;5076247;28;20048;-73
2021/04/01 08:15:09;;;;;;;24.77;3.88;;;11.10;76.70;;;;;;5061467;28;20037;-74
2021/04/01 08:17:54;;;;;;;22.30;4.05;;;11.10;76.60;;;;;;5073829;28;20036;-73
2021/04/01 08:20:32;;;;;;;18.40;3.25;;;11.20;76.90;;;;;;5060743;28;20064;-72
2021/04/01 08:23:10;;;;;;;21.63;4.10;;;11.30;77.50;;;;;;5064757;28;20111;-73
2021/04/01 08:25:42;;;;;;;23.35;4.72;;;11.40;77.70;;;;;;5063134;28;20037;-74
2021/04/01 08:35:59;;;;;;;17.08;3.45;;;11.20;77.00;;;;;;5062077;28;20051;-73
2021/04/01 08:38:25;;;;;;;17.45;4.20;;;11.30;77.30;;;;;;5060416;28;20538;-73
2021/04/01 08:40:52;;;;;;;16.10;3.90;;;11.30;77.30;;;;;;5062655;28;20040;-73
2021/04/01 08:43:37;;;;;;;11.43;3.17;;;11.40;76.50;;;;;;5059572;28;20037;-73
2021/04/01 08:46:39;;;;;;;14.25;3.90;;;11.40;75.90;;;;;;5060704;28;20043;-73
2021/04/01 08:49:23;;;;;;;19.48;4.10;;;11.40;76.40;;;;;;5032532;28;20062;-72
2021/04/01 08:52:14;;;;;;;12.00;3.47;;;11.30;77.00;;;;;;5058831;28;20055;-73
2021/04/01 08:54:50;;;;;;;11.25;3.40;;;11.30;77.60;;;;;;5056736;28;20119;-75
2021/04/01 08:57:29;;;;;;;12.35;3.28;;;11.00;77.30;;;;;;5060937;28;20123;-73
2021/04/01 09:00:09;;;;;;;14.07;3.13;;;10.80;78.10;;;;;;5056632;28;20494;-74
2021/04/01 09:02:36;;;;;;;9.85;3.22;;;10.50;79.00;;;;;;5061277;28;20616;-74
2021/04/01 09:05:06;;;;;;;10.65;2.60;;;10.30;79.70;;;;;;5059968;28;20229;-72
2021/04/01 09:07:52;;;;;;;12.48;2.90;;;10.40;80.30;;;;;;5042824;28;20084;-73
2021/04/01 09:10:24;;;;;;;13.52;2.67;;;10.40;80.60;;;;;;5072100;28;20070;-73
2021/04/01 09:18:28;;;;;;;15.23;2.72;;;10.70;80.20;;;;;;5025360;28;20522;-73
2021/04/01 09:20:57;;;;;;;10.77;2.60;;;10.60;79.70;;;;;;5057346;28;20053;-82
2021/04/01 09:23:41;;;;;;;18.40;3.75;;;10.60;78.90;;;;;;5060747;28;20043;-81
2021/04/01 09:26:08;;;;;;;11.13;2.60;;;10.50;79.50;;;;;;5089846;28;20040;-80
2021/04/01 09:28:41;;;;;;;12.43;2.63;;;10.50;79.10;;;;;;5076606;28;20114;-80
2021/04/01 09:31:09;;;;;;;13.27;2.90;;;10.50;78.90;;;;;;5060331;28;20036;-73
2021/04/01 09:33:36;;;;;;;16.05;2.75;;;10.70;78.60;;;;;;5058390;28;20399;-73
2021/04/01 09:36:11;;;;;;;10.10;2.30;;;10.80;78.30;;;;;;5058283;28;20041;-73
2021/04/01 09:38:43;;;;;;;11.88;2.28;;;10.90;76.90;;;;;;5059931;28;20049;-73
2021/04/01 09:41:12;;;;;;;10.65;2.00;;;11.00;74.60;;;;;;5061305;28;20044;-73
2021/04/01 09:43:49;;;;;;;14.32;2.60;;;10.90;75.30;;;;;;5079688;28;20037;-74
2021/04/01 09:46:15;;;;;;;14.88;2.53;;;11.00;75.10;;;;;;5060800;28;20041;-73
2021/04/01 09:48:48;;;;;;;12.05;1.85;;;11.10;74.20;;;;;;5024135;28;20561;-73
2021/04/01 09:51:21;;;;;;;11.10;2.15;;;11.20;74.00;;;;;;5077179;28;20071;-73
2021/04/01 09:53:54;;;;;;;10.82;2.20;;;11.40;74.10;;;;;;5061953;28;20119;-73
2021/04/01 09:56:26;;;;;;;10.57;1.95;;;11.60;72.90;;;;;;5059361;28;20046;-73
2021/04/01 09:58:53;;;;;;;11.23;2.85;;;11.70;71.70;;;;;;5066181;28;20112;-73
2021/04/01 10:01:31;;;;;;;14.85;2.20;;;11.80;71.60;;;;;;5081622;28;20036;-73
2021/04/01 10:04:13;;;;;;;14.25;2.28;;;11.90;70.60;;;;;;5065492;28;20410;-74
2021/04/01 10:06:49;;;;;;;12.13;2.45;;;12.00;70.50;;;;;;5100398;28;20047;-74
2021/04/01 10:09:20;;;;;;;20.30;2.92;;;12.00;71.20;;;;;;5045500;28;20048;-74
2021/04/01 10:11:55;;;;;;;13.13;2.78;;;12.10;70.30;;;;;;5061659;28;20068;-73
2021/04/01 10:14:22;;;;;;;12.55;2.33;;;12.20;70.70;;;;;;5062332;28;20044;-73
2021/04/01 10:16:49;;;;;;;8.68;1.98;;;12.30;69.70;;;;;;5063889;28;20041;-73
2021/04/01 10:19:18;;;;;;;12.25;2.08;;;12.30;70.10;;;;;;5067271;28;20125;-73
2021/04/01 10:21:45;;;;;;;14.50;2.30;;;12.30;68.70;;;;;;5061149;28;20870;-72
2021/04/01 10:24:26;;;;;;;19.55;3.22;;;12.10;69.80;;;;;;5047341;28;20474;-73
2021/04/01 10:32:13;;;;;;;12.88;2.45;;;11.70;69.90;;;;;;5056465;28;20041;-73
2021/04/01 10:34:41;;;;;;;;;;;11.60;71.30;;;;;;5053229;28;20522;-73
2021/04/01 10:37:15;;;;;;;13.68;2.33;;;11.90;71.60;;;;;;5053239;28;19924;-73
2021/04/01 10:39:42;;;;;;;11.52;2.40;;;12.00;69.10;;;;;;5054676;28;20079;-73
2021/04/01 10:42:10;;;;;;;7.18;1.55;;;12.10;68.30;;;;;;5051856;28;20501;-73
2021/04/01 10:44:38;;;;;;;11.90;2.50;;;12.10;66.90;;;;;;5053349;28;20094;-73
2021/04/01 10:47:06;;;;;;;8.85;2.00;;;12.30;67.60;;;;;;5053181;28;20055;-75
2021/04/01 10:49:36;;;;;;;13.90;2.00;;;12.40;67.20;;;;;;5050974;28;20549;-74
2021/04/01 10:52:10;;;;;;;12.18;1.85;;;12.40;66.70;;;;;;5054696;28;20036;-74
2021/04/01 10:54:41;;;;;;;11.77;1.98;;;12.50;67.00;;;;;;5057624;28;20052;-74
2021/04/01 10:57:28;;;;;;;6.80;1.50;;;12.60;66.00;;;;;;5075296;28;20051;-73
2021/04/01 10:59:54;;;;;;;9.30;2.75;;;12.80;63.70;;;;;;5062921;28;20037;-74
2021/04/01 11:02:34;;;;;;;12.80;2.03;;;12.80;63.00;;;;;;5057015;28;20052;-74
2021/04/01 11:05:20;;;;;;;;;;;12.90;63.40;;;;;;5076497;28;20127;-74
2021/04/01 11:07:49;;;;;;;8.65;1.40;;;13.00;62.40;;;;;;5056843;28;19928;-73
2021/04/01 11:10:24;;;;;;;10.27;2.25;;;12.90;62.40;;;;;;5065500;28;20086;-73
2021/04/01 11:12:56;;;;;;;11.93;2.25;;;13.00;60.20;;;;;;5060953;28;20116;-73
2021/04/01 11:15:42;;;;;;;14.43;2.53;;;13.00;61.50;;;;;;5057538;28;20052;-73
2021/04/01 11:18:17;;;;;;;13.57;2.50;;;13.00;62.70;;;;;;5061110;28;20048;-73
2021/04/01 11:20:48;;;;;;;11.88;2.28;;;13.00;62.40;;;;;;5065993;28;20068;-73
2021/04/01 11:23:25;;;;;;;13.48;2.35;;;13.00;61.00;;;;;;5075933;28;20044;-73
2021/04/01 11:25:59;;;;;;;11.23;2.35;;;13.00;62.50;;;;;;5062254;28;20513;-74
2021/04/01 11:28:40;;;;;;;13.13;2.10;;;13.10;61.80;;;;;;5065118;28;20048;-74
2021/04/01 11:31:10;;;;;;;13.00;2.17;;;13.30;60.50;;;;;;5069711;28;20132;-73
2021/04/01 11:33:39;;;;;;;12.60;2.40;;;13.30;58.10;;;;;;5055906;28;20548;-73
2021/04/01 11:36:12;;;;;;;13.43;2.63;;;13.10;59.20;;;;;;5056105;28;20071;-74
2021/04/01 11:38:49;;;;;;;11.10;2.03;;;13.10;61.10;;;;;;5061245;28;20310;-75
2021/04/01 11:41:24;;;;;;;18.33;2.67;;;13.20;58.90;;;;;;5080503;28;20044;-74
2021/04/01 11:43:59;;;;;;;10.48;3.05;;;13.10;58.40;;;;;;5081016;28;20056;-74
2021/04/01 11:46:31;;;;;;;11.63;2.25;;;12.90;59.20;;;;;;5064452;28;20503;-73
2021/04/01 11:48:58;;;;;;;10.43;2.50;;;12.90;60.20;;;;;;5064091;28;20040;-73
2021/04/01 11:51:34;;;;;;;10.85;3.13;;;13.00;60.50;;;;;;5063285;28;20041;-73
2021/04/01 11:54:04;;;;;;;13.80;2.20;;;13.20;59.50;;;;;;5061304;28;20036;-73
2021/04/01 11:56:34;;;;;;;12.30;2.60;;;13.30;58.40;;;;;;5065086;28;20043;-75
2021/04/01 11:59:09;;;;;;;11.60;2.85;;;13.20;57.10;;;;;;5062720;28;20497;-74
2021/04/01 12:02:10;;;;;;;13.80;2.72;;;13.10;57.80;;;;;;5062755;28;20037;-73
2021/04/01 12:04:38;;;;;;;12.38;2.28;;;12.90;57.60;;;;;;5041600;28;20047;-74
2021/04/01 12:07:07;;;;;;;13.23;2.80;;;12.90;56.30;;;;;;5050586;28;20119;-72
2021/04/01 12:09:34;;;;;;;15.73;3.00;;;12.70;58.40;;;;;;5061251;28;20115;-73
2021/04/01 12:11:59;;;;;;;12.52;2.80;;;12.70;60.60;;;;;;5075719;28;20049;-74
2021/04/01 12:14:37;;;;;;;11.25;2.00;;;12.80;60.10;;;;;;5059769;28;20048;-73
2021/04/01 12:17:10;;;;;;;12.82;2.55;;;12.80;57.80;;;;;;5059601;28;20037;-74
2021/04/01 12:19:37;;;;;;;14.68;2.60;;;12.80;58.10;;;;;;5055561;28;20117;-74
2021/04/01 12:22:13;;;;;;;13.63;2.70;;;12.80;58.60;;;;;;5062650;28;20581;-73
2021/04/01 12:24:39;;;;;;;15.30;3.00;;;12.80;59.20;;;;;;5058284;28;20403;-75
2021/04/01 12:27:06;;;;;;;14.55;3.45;;;12.90;58.40;;;;;;5056814;28;20036;-74
2021/04/01 12:29:45;;;;;;;13.23;2.70;;;12.90;55.80;;;;;;5075614;28;20108;-73
2021/04/01 12:32:11;;;;;;;12.00;2.75;;;12.60;58.30;;;;;;5060855;28;20127;-74
2021/04/01 12:34:37;;;;;;;13.35;2.97;;;12.60;59.30;;;;;;5075905;28;20143;-74
2021/04/01 12:37:03;;;;;;;9.93;2.55;;;12.70;56.60;;;;;;5073240;28;20037;-83
2021/04/01 12:39:32;;;;;;;13.45;2.65;;;12.60;57.60;;;;;;5077398;28;20561;-82
2021/04/01 12:41:59;;;;;;;11.75;2.40;;;12.60;56.50;;;;;;5094086;28;20040;-83
2021/04/01 12:44:34;;;;;;;14.70;3.17;;;12.50;57.70;;;;;;5076582;28;20036;-81
2021/04/01 12:47:00;;;;;;;12.30;2.63;;;12.70;59.40;;;;;;5061092;28;20039;-83
2021/04/01 12:49:35;;;;;;;10.55;2.33;;;12.90;56.70;;;;;;5060689;28;20040;-82
2021/04/01 12:52:03;;;;;;;9.52;2.30;;;12.90;57.50;;;;;;5058762;28;20041;-81
2021/04/01 12:54:39;;;;;;;15.68;2.70;;;12.90;58.10;;;;;;5062189;28;20423;-82
2021/04/01 12:57:17;;;;;;;13.43;3.05;;;13.00;56.50;;;;;;5060162;28;20059;-81
2021/04/01 12:59:49;;;;;;;18.58;3.67;;;13.10;55.60;;;;;;5063848;28;20115;-81
2021/04/01 13:02:18;;;;;;;16.73;2.92;;;13.10;55.40;;;;;;5061898;28;20049;-73
2021/04/01 13:07:28;;;;;;;16.40;3.45;;;13.10;56.60;;;;;;5057735;28;20330;-71
2021/04/01 13:10:39;;;;;;;12.60;3.50;;;12.90;56.60;;;;;;5024321;28;20052;-72
2021/04/01 13:12:56;;;;;;;14.43;2.70;;;13.00;58.20;;;;;;5060003;28;20187;-72
2021/04/01 13:15:22;;;;;;;14.50;2.92;;;13.00;57.10;;;;;;5060461;28;20119;-72
2021/04/01 13:17:47;;;;;;;14.10;2.90;;;13.10;56.30;;;;;;5078657;28;20041;-71
2021/04/01 13:20:16;;;;;;;11.95;3.08;;;13.10;55.40;;;;;;5063530;28;20029;-72
2021/04/01 13:22:55;;;;;;;10.02;3.25;;;13.10;55.70;;;;;;5059308;28;20044;-74
2021/04/01 13:25:20;;;;;;;11.40;3.33;;;13.00;56.50;;;;;;5063858;28;20048;-73
2021/04/01 13:27:47;;;;;;;12.63;3.17;;;13.10;56.80;;;;;;5064877;28;20041;-73
2021/04/01 13:30:14;;;;;;;16.17;4.18;;;13.20;56.70;;;;;;5062721;28;20047;-73
2021/04/01 13:32:49;;;;;;;10.07;2.70;;;13.10;56.10;;;;;;5062547;28;20037;-73
2021/04/01 13:37:53;;;;;;;11.85;3.35;;;12.90;57.10;;;;;;5067645;28;20040;-72
2021/04/01 13:40:21;;;;;;;11.57;3.22;;;13.00;57.00;;;;;;5064874;28;20142;-72
2021/04/01 13:42:54;;;;;;;11.07;2.78;;;13.10;58.00;;;;;;5065906;28;20037;-72
2021/04/01 13:45:25;;;;;;;8.93;2.60;;;12.90;58.40;;;;;;5081854;28;20098;-73
2021/04/01 13:48:00;;;;;;;8.05;2.58;;;12.90;59.10;;;;;;5059347;28;20086;-73
2021/04/01 13:50:27;;;;;;;11.30;3.10;;;12.80;59.40;;;;;;5063947;28;20036;-73
2021/04/01 13:53:48;;;;;;;9.82;2.53;;;12.50;61.50;;;;;;5063012;28;20029;-73
2021/04/01 13:55:46;;;;;;;11.10;2.67;;;12.20;62.00;;;;;;5064097;28;20049;-73
2021/04/01 13:58:27;;;;;;;8.10;2.47;;;11.90;63.40;;;;;;5096867;28;20127;-73
2021/04/01 14:03:56;;;;;;;6.85;2.20;;;11.80;63.00;;;;;;5063142;28;20052;-73
2021/04/01 14:09:37;;;;;;;8.80;2.28;;;11.30;65.80;;;;;;5066076;28;20124;-73
2021/04/01 14:12:08;;;;;;;7.30;2.25;;;11.20;66.50;;;;;;5066053;28;20039;-82
2021/04/01 14:14:37;;;;;;;7.05;2.33;;;11.10;66.70;;;;;;5065133;28;20040;-82
2021/04/01 14:17:07;;;;;;;5.95;1.90;;;11.00;67.60;;;;;;5080662;28;20602;-81
2021/04/01 14:19:34;;;;;;;5.50;2.43;;;10.90;68.30;;;;;;5065643;28;20037;-82
2021/04/01 14:22:02;;;;;;;7.25;2.40;;;10.70;68.20;;;;;;5063447;28;20297;-79
2021/04/01 14:29:37;;;;;;;7.30;2.47;;;10.20;70.30;;;;;;5064105;28;20043;-73
2021/04/01 14:32:05;;;;;;;7.85;2.25;;;10.20;72.10;;;;;;5063320;28;20040;-73
2021/04/01 14:34:33;;;;;;;6.05;2.50;;;10.20;71.30;;;;;;5060921;28;20042;-72
2021/04/01 14:37:01;;;;;;;5.57;2.22;;;10.00;72.30;;;;;;5062220;28;20044;-74
2021/04/01 14:39:31;;;;;;;9.02;2.97;;;10.00;72.00;;;;;;5029932;28;20470;-73
2021/04/01 14:42:04;;;;;;;9.75;3.65;;;9.90;72.60;;;;;;5061913;28;20127;-73